Airfield :
LOGIN :

Register | Disclaimer

   EN    FR    IT 

 










Legend :    VFR   Marginal VFR   IFR   Intensive IFR   Very Intensive IFR
Visi :
Ceiling :
>= 8 km
>= 3000ft
5 to 8 km
1000 to 3000 ft
1500m to 5 km
500 to 1000 ft
800 to 1500m
200 to 500 ft
< 800m
< 200 ft
Symbols :   Thunderstorms  Fog  Heavy snow  Heavy precipitations  Wind > 20 kt
SIGMETs :     Misc.  Thunderstorms  Icing  Turbulence  Mountain Waves  Volcanic Ashes






- Airport Elevation : 400 ft
- IATA code : BNX


LQBK - Banja Luka

CURRENT METAR :
  • 290800Z 02003KT 5000 BR OVC007 03/02 Q1020 NOSIG

EXPIRED METARs :
  • 290730Z 01005KT 5000 BR OVC007 03/02 Q1020 NOSIG
  • 290700Z 02005KT 5000 BR BKN007 OVC023 03/02 Q1019 NOSIG
  • 290630Z 02004KT 5000 BR BKN007 0VC023 03/02 Q1019 NOSIG
  • 290600Z 01003KT 5000 BR BKN007 OVC023 03/02 Q1019 NOSIG
  • 290530Z 36003KT 5000 BR BKN009 OVC023 03/02 Q1019 NOSIG

TAF TAF LQBK
Valid from the 29 at 06:00 until the 30 at 06:00 UTC


290500Z 2906/3006 06005KT 4000 BR BKN010 OVC020 TX04/2913Z TN02/3006Z
TEMPO 2910/2917 7000 NSW SCT010 BKN025
PROB40
TEMPO 3000/3006 2000 -RA BR BKN004 OVC015



MET'MAP, your aeronautical weather chart ! - Copyright ORBIFLY December 2007 - Disclaimer

ORBIFLY MET'MAP TEAM :

Programming & Development : Alexandra Zaïnal
Original concept : Baudouin d'Aumeries
Technical & hardware support : Manuel Goepfert
Assistance : Marc-Olivier Méhu




SOURCES & CREDITS :

   NOAA